sensor_id;sensor_type;location;lat;lon;timestamp;pressure;altitude;pressure_sealevel;temperature;humidity
45255;BME280;30989;52.078;21.014;2022-07-29T00:01:47;167536.88;;;14.39;91.37
45255;BME280;30989;52.078;21.014;2022-07-29T00:04:13;167534.19;;;14.38;91.42
45255;BME280;30989;52.078;21.014;2022-07-29T00:06:39;167520.75;;;14.33;90.80
45255;BME280;30989;52.078;21.014;2022-07-29T00:09:05;167532.84;;;14.38;91.25
45255;BME280;30989;52.078;21.014;2022-07-29T00:11:30;167518.06;;;14.32;90.93
45255;BME280;30989;52.078;21.014;2022-07-29T00:13:56;167519.41;;;14.33;90.89
45255;BME280;30989;52.078;21.014;2022-07-29T00:16:21;167515.41;;;14.31;90.80
45255;BME280;30989;52.078;21.014;2022-07-29T00:18:47;167512.72;;;14.30;91.08
45255;BME280;30989;52.078;21.014;2022-07-29T00:21:12;167503.31;;;14.27;91.21
45255;BME280;30989;52.078;21.014;2022-07-29T00:23:38;167485.84;;;14.20;90.69
45255;BME280;30989;52.078;21.014;2022-07-29T00:26:03;167467.06;;;14.13;91.15
45255;BME280;30989;52.078;21.014;2022-07-29T00:28:29;167468.41;;;14.13;90.79
45255;BME280;30989;52.078;21.014;2022-07-29T00:30:54;167460.34;;;14.10;90.55
45255;BME280;30989;52.078;21.014;2022-07-29T00:33:20;167449.63;;;14.06;90.47
45255;BME280;30989;52.078;21.014;2022-07-29T00:35:45;167434.84;;;14.01;91.01
45255;BME280;30989;52.078;21.014;2022-07-29T00:38:16;167421.44;;;13.96;91.17
45255;BME280;30989;52.078;21.014;2022-07-29T00:40:46;167413.38;;;13.93;91.15
45255;BME280;30989;52.078;21.014;2022-07-29T00:43:13;167402.66;;;13.88;91.17
45255;BME280;30989;52.078;21.014;2022-07-29T00:45:40;167381.16;;;13.80;91.05
45255;BME280;30989;52.078;21.014;2022-07-29T00:48:06;167381.16;;;13.80;91.72
45255;BME280;30989;52.078;21.014;2022-07-29T00:50:34;167374.47;;;13.78;91.81
45255;BME280;30989;52.078;21.014;2022-07-29T00:53:00;167363.72;;;13.74;91.41
45255;BME280;30989;52.078;21.014;2022-07-29T00:55:27;167357.00;;;13.71;91.70
45255;BME280;30989;52.078;21.014;2022-07-29T00:57:54;167363.72;;;13.74;91.42
45255;BME280;30989;52.078;21.014;2022-07-29T01:00:23;167362.38;;;13.73;92.10
45255;BME280;30989;52.078;21.014;2022-07-29T01:02:49;167355.66;;;13.71;91.92
45255;BME280;30989;52.078;21.014;2022-07-29T01:05:20;167348.97;;;13.68;92.11
45255;BME280;30989;52.078;21.014;2022-07-29T01:07:49;167343.59;;;13.66;91.66
45255;BME280;30989;52.078;21.014;2022-07-29T01:10:15;167343.59;;;13.66;92.49
45255;BME280;30989;52.078;21.014;2022-07-29T01:12:44;167339.56;;;13.65;91.52
45255;BME280;30989;52.078;21.014;2022-07-29T01:15:12;167336.88;;;13.64;91.34
45255;BME280;30989;52.078;21.014;2022-07-29T01:17:52;167332.88;;;13.62;91.63
45255;BME280;30989;52.078;21.014;2022-07-29T01:28:08;167322.13;;;13.58;91.94
45255;BME280;30989;52.078;21.014;2022-07-29T01:30:42;167300.66;;;13.50;91.71
45255;BME280;30989;52.078;21.014;2022-07-29T01:33:11;167322.13;;;13.58;91.96
45255;BME280;30989;52.078;21.014;2022-07-29T01:36:01;167307.38;;;13.52;91.48
45255;BME280;30989;52.078;21.014;2022-07-29T01:38:30;167303.34;;;13.51;91.49
45255;BME280;30989;52.078;21.014;2022-07-29T01:41:05;167316.75;;;13.56;91.89
45255;BME280;30989;52.078;21.014;2022-07-29T01:43:49;167315.41;;;13.55;91.86
45255;BME280;30989;52.078;21.014;2022-07-29T01:46:58;167310.06;;;13.53;91.55
45255;BME280;30989;52.078;21.014;2022-07-29T01:49:18;167275.16;;;13.40;91.87
45255;BME280;30989;52.078;21.014;2022-07-29T01:51:49;167297.97;;;13.49;91.81
45255;BME280;30989;52.078;21.014;2022-07-29T01:54:24;167295.28;;;13.48;92.42
45255;BME280;30989;52.078;21.014;2022-07-29T01:56:53;167293.94;;;13.47;91.85
45255;BME280;30989;52.078;21.014;2022-07-29T01:59:20;167292.59;;;13.47;92.11
45255;BME280;30989;52.078;21.014;2022-07-29T02:01:47;167264.44;;;13.36;92.17
45255;BME280;30989;52.078;21.014;2022-07-29T02:04:16;167273.81;;;13.40;91.97
45255;BME280;30989;52.078;21.014;2022-07-29T02:06:44;167249.69;;;13.31;92.57
45255;BME280;30989;52.078;21.014;2022-07-29T02:09:13;167264.44;;;13.36;92.52
45255;BME280;30989;52.078;21.014;2022-07-29T02:11:52;167256.38;;;13.33;92.08
45255;BME280;30989;52.078;21.014;2022-07-29T02:14:20;167251.00;;;13.31;92.92
45255;BME280;30989;52.078;21.014;2022-07-29T02:16:48;167259.06;;;13.34;92.83
45255;BME280;30989;52.078;21.014;2022-07-29T02:19:17;167256.38;;;13.33;93.07
45255;BME280;30989;52.078;21.014;2022-07-29T02:21:44;167248.34;;;13.30;93.53
45255;BME280;30989;52.078;21.014;2022-07-29T02:24:11;167248.34;;;13.30;93.51
45255;BME280;30989;52.078;21.014;2022-07-29T02:26:40;167249.69;;;13.31;93.98
45255;BME280;30989;52.078;21.014;2022-07-29T02:29:08;167241.63;;;13.28;93.67
45255;BME280;30989;52.078;21.014;2022-07-29T02:31:35;167238.94;;;13.27;93.91
45255;BME280;30989;52.078;21.014;2022-07-29T02:34:03;167209.38;;;13.15;93.80
45255;BME280;30989;52.078;21.014;2022-07-29T02:36:31;167217.47;;;13.18;94.36
45255;BME280;30989;52.078;21.014;2022-07-29T02:38:58;167200.00;;;13.12;94.48
45255;BME280;30989;52.078;21.014;2022-07-29T02:41:41;167212.13;;;13.16;94.45
45255;BME280;30989;52.078;21.014;2022-07-29T02:44:16;167212.13;;;13.16;94.85
45255;BME280;30989;52.078;21.014;2022-07-29T02:46:49;167201.31;;;13.12;95.57
45255;BME280;30989;52.078;21.014;2022-07-29T02:51:54;167216.13;;;13.18;95.56
45255;BME280;30989;52.078;21.014;2022-07-29T02:54:44;167222.84;;;13.20;95.51
45255;BME280;30989;52.078;21.014;2022-07-29T02:57:19;167217.47;;;13.18;95.72
45255;BME280;30989;52.078;21.014;2022-07-29T02:59:48;167189.25;;;13.08;95.51
45255;BME280;30989;52.078;21.014;2022-07-29T03:02:15;167212.13;;;13.16;95.90
45255;BME280;30989;52.078;21.014;2022-07-29T03:04:42;167209.38;;;13.15;96.06
45255;BME280;30989;52.078;21.014;2022-07-29T03:07:10;167213.44;;;13.17;96.14
45255;BME280;30989;52.078;21.014;2022-07-29T03:09:37;167209.38;;;13.15;96.13
45255;BME280;30989;52.078;21.014;2022-07-29T03:12:04;167208.03;;;13.15;96.20
45255;BME280;30989;52.078;21.014;2022-07-29T03:14:31;167206.69;;;13.14;96.49
45255;BME280;30989;52.078;21.014;2022-07-29T03:16:57;167191.94;;;13.09;96.64
45255;BME280;30989;52.078;21.014;2022-07-29T03:19:23;167202.66;;;13.13;96.97
45255;BME280;30989;52.078;21.014;2022-07-29T03:21:49;167195.97;;;13.10;96.99
45255;BME280;30989;52.078;21.014;2022-07-29T03:24:29;167201.31;;;13.12;97.55
45255;BME280;30989;52.078;21.014;2022-07-29T03:26:56;167213.44;;;13.17;97.88
45255;BME280;30989;52.078;21.014;2022-07-29T03:29:22;167205.34;;;13.14;97.90
45255;BME280;30989;52.078;21.014;2022-07-29T03:31:47;167217.47;;;13.18;98.20
45255;BME280;30989;52.078;21.014;2022-07-29T03:34:13;167220.16;;;13.19;97.93
45255;BME280;30989;52.078;21.014;2022-07-29T03:36:38;167210.72;;;13.16;97.76
45255;BME280;30989;52.078;21.014;2022-07-29T03:39:04;167214.78;;;13.17;98.53
45255;BME280;30989;52.078;21.014;2022-07-29T03:41:31;167234.91;;;13.25;98.51
45255;BME280;30989;52.078;21.014;2022-07-29T03:43:58;167244.31;;;13.29;98.44
45255;BME280;30989;52.078;21.014;2022-07-29T03:46:25;167241.63;;;13.28;98.47
45255;BME280;30989;52.078;21.014;2022-07-29T03:48:55;167260.41;;;13.35;98.93
45255;BME280;30989;52.078;21.014;2022-07-29T03:51:23;167268.47;;;13.38;98.51
45255;BME280;30989;52.078;21.014;2022-07-29T03:53:50;167284.56;;;13.44;98.82
45255;BME280;30989;52.078;21.014;2022-07-29T03:56:16;167291.25;;;13.46;99.63
45255;BME280;30989;52.078;21.014;2022-07-29T03:58:46;167295.28;;;13.48;99.25
45255;BME280;30989;52.078;21.014;2022-07-29T04:01:12;167302.00;;;13.50;99.73
45255;BME280;30989;52.078;21.014;2022-07-29T04:03:39;167322.13;;;13.58;100.00
45255;BME280;30989;52.078;21.014;2022-07-29T04:06:06;167331.53;;;13.62;99.87
45255;BME280;30989;52.078;21.014;2022-07-29T04:08:32;167346.28;;;13.67;99.59
45255;BME280;30989;52.078;21.014;2022-07-29T04:10:59;167367.75;;;13.75;100.00
45255;BME280;30989;52.078;21.014;2022-07-29T04:13:24;167365.06;;;13.74;100.00
45255;BME280;30989;52.078;21.014;2022-07-29T04:15:50;167383.84;;;13.81;100.00
45255;BME280;30989;52.078;21.014;2022-07-29T04:18:16;167387.88;;;13.83;100.00
45255;BME280;30989;52.078;21.014;2022-07-29T04:20:41;167386.53;;;13.82;99.72
45255;BME280;30989;52.078;21.014;2022-07-29T04:23:07;167420.09;;;13.95;99.75
45255;BME280;30989;52.078;21.014;2022-07-29T04:25:32;167433.50;;;14.00;100.00
45255;BME280;30989;52.078;21.014;2022-07-29T04:27:58;167449.63;;;14.06;99.67
45255;BME280;30989;52.078;21.014;2022-07-29T04:30:26;167464.38;;;14.12;99.92
45255;BME280;30989;52.078;21.014;2022-07-29T04:32:52;167464.38;;;14.12;100.00
45255;BME280;30989;52.078;21.014;2022-07-29T04:35:18;167472.44;;;14.15;99.30
45255;BME280;30989;52.078;21.014;2022-07-29T04:37:44;167488.53;;;14.21;100.00
45255;BME280;30989;52.078;21.014;2022-07-29T04:40:10;167510.03;;;14.29;100.00
45255;BME280;30989;52.078;21.014;2022-07-29T04:42:37;167519.41;;;14.33;99.62
45255;BME280;30989;52.078;21.014;2022-07-29T04:45:03;167519.41;;;14.33;99.50
45255;BME280;30989;52.078;21.014;2022-07-29T04:47:29;167539.56;;;14.40;99.05
45255;BME280;30989;52.078;21.014;2022-07-29T04:49:54;167547.66;;;14.43;98.63
45255;BME280;30989;52.078;21.014;2022-07-29T04:52:22;167577.19;;;14.55;98.68
45255;BME280;30989;52.078;21.014;2022-07-29T04:54:47;167585.25;;;14.58;98.24
45255;BME280;30989;52.078;21.014;2022-07-29T04:57:13;167625.53;;;14.73;98.57
45255;BME280;30989;52.078;21.014;2022-07-29T04:59:39;167657.75;;;14.85;98.23
45255;BME280;30989;52.078;21.014;2022-07-29T05:02:04;167696.72;;;15.00;98.05
45255;BME280;30989;52.078;21.014;2022-07-29T05:04:30;167708.78;;;15.04;97.86
45255;BME280;30989;52.078;21.014;2022-07-29T05:06:55;167724.91;;;15.10;97.77
45255;BME280;30989;52.078;21.014;2022-07-29T05:09:20;167763.84;;;15.25;97.92
45255;BME280;30989;52.078;21.014;2022-07-29T05:11:46;167800.13;;;15.39;96.69
45255;BME280;30989;52.078;21.014;2022-07-29T05:14:11;167833.72;;;15.52;96.78
45255;BME280;30989;52.078;21.014;2022-07-29T05:16:37;167856.66;;;15.60;96.28
45255;BME280;30989;52.078;21.014;2022-07-29T05:19:04;167875.47;;;15.67;96.34
45255;BME280;30989;52.078;21.014;2022-07-29T05:21:30;167886.19;;;15.71;96.06
45255;BME280;30989;52.078;21.014;2022-07-29T05:23:55;167899.63;;;15.76;96.10
45255;BME280;30989;52.078;21.014;2022-07-29T05:26:21;167890.22;;;15.73;95.79
45255;BME280;30989;52.078;21.014;2022-07-29T05:28:46;167919.78;;;15.84;96.05
45255;BME280;30989;52.078;21.014;2022-07-29T05:31:12;167934.56;;;15.90;95.92
45255;BME280;30989;52.078;21.014;2022-07-29T05:33:40;167957.41;;;15.98;95.75
45255;BME280;30989;52.078;21.014;2022-07-29T05:36:06;167974.88;;;16.05;95.77
45255;BME280;30989;52.078;21.014;2022-07-29T05:38:32;167993.69;;;16.12;95.03
45255;BME280;30989;52.078;21.014;2022-07-29T05:40:58;168009.81;;;16.18;95.38
45255;BME280;30989;52.078;21.014;2022-07-29T05:43:25;168039.38;;;16.29;95.26
45255;BME280;30989;52.078;21.014;2022-07-29T05:45:51;168052.81;;;16.34;94.56
45255;BME280;30989;52.078;21.014;2022-07-29T05:48:17;168055.50;;;16.35;94.47
45255;BME280;30989;52.078;21.014;2022-07-29T05:50:42;168028.63;;;16.25;94.72
45255;BME280;30989;52.078;21.014;2022-07-29T05:53:13;168017.88;;;16.21;94.29
45255;BME280;30989;52.078;21.014;2022-07-29T05:55:38;168032.66;;;16.27;94.64
45255;BME280;30989;52.078;21.014;2022-07-29T05:58:04;168050.13;;;16.33;94.71
45255;BME280;30989;52.078;21.014;2022-07-29T06:00:30;168090.47;;;16.49;94.57
45255;BME280;30989;52.078;21.014;2022-07-29T06:02:55;168136.22;;;16.66;94.14
45255;BME280;30989;52.078;21.014;2022-07-29T06:05:22;168179.22;;;16.82;93.80
45255;BME280;30989;52.078;21.014;2022-07-29T06:07:47;168208.81;;;16.93;92.98
45255;BME280;30989;52.078;21.014;2022-07-29T06:10:13;168241.06;;;17.05;92.35
45255;BME280;30989;52.078;21.014;2022-07-29T06:12:38;168276.03;;;17.19;92.66
45255;BME280;30989;52.078;21.014;2022-07-29T06:15:04;168305.63;;;17.30;92.06
45255;BME280;30989;52.078;21.014;2022-07-29T06:17:30;168312.34;;;17.32;90.77
45255;BME280;30989;52.078;21.014;2022-07-29T06:19:56;168359.41;;;17.50;89.88
45255;BME280;30989;52.078;21.014;2022-07-29T06:22:21;168372.88;;;17.55;89.39
45255;BME280;30989;52.078;21.014;2022-07-29T06:24:47;168375.56;;;17.56;88.68
45255;BME280;30989;52.078;21.014;2022-07-29T06:27:12;168397.06;;;17.64;88.99
45255;BME280;30989;52.078;21.014;2022-07-29T06:29:38;168424.03;;;17.75;88.94
45255;BME280;30989;52.078;21.014;2022-07-29T06:32:04;168436.13;;;17.79;87.81
45255;BME280;30989;52.078;21.014;2022-07-29T06:34:29;168476.47;;;17.94;87.66
45255;BME280;30989;52.078;21.014;2022-07-29T06:36:55;168491.28;;;18.00;85.67
45255;BME280;30989;52.078;21.014;2022-07-29T06:39:20;168483.22;;;17.97;86.11
45255;BME280;30989;52.078;21.014;2022-07-29T06:41:48;168492.63;;;18.00;87.13
45255;BME280;30989;52.078;21.014;2022-07-29T06:44:18;168537.03;;;18.17;87.16
45255;BME280;30989;52.078;21.014;2022-07-29T06:46:44;168570.66;;;18.30;85.94
45255;BME280;30989;52.078;21.014;2022-07-29T06:49:09;168620.44;;;18.49;86.13
45255;BME280;30989;52.078;21.014;2022-07-29T06:51:35;168666.25;;;18.66;85.22
45255;BME280;30989;52.078;21.014;2022-07-29T06:54:01;168690.47;;;18.75;85.10
45255;BME280;30989;52.078;21.014;2022-07-29T06:56:31;168737.56;;;18.93;84.01
45255;BME280;30989;52.078;21.014;2022-07-29T06:58:56;168747.00;;;18.96;83.36
45255;BME280;30989;52.078;21.014;2022-07-29T07:01:22;168795.47;;;19.15;83.03
45255;BME280;30989;52.078;21.014;2022-07-29T07:03:47;168811.59;;;19.21;82.49
45255;BME280;30989;52.078;21.014;2022-07-29T07:06:16;168841.22;;;19.32;82.16
45255;BME280;30989;52.078;21.014;2022-07-29T07:08:41;168850.66;;;19.36;81.33
45255;BME280;30989;52.078;21.014;2022-07-29T07:11:08;168860.06;;;19.39;81.67
45255;BME280;30989;52.078;21.014;2022-07-29T07:13:33;168900.50;;;19.54;80.85
45255;BME280;30989;52.078;21.014;2022-07-29T07:16:03;168920.72;;;19.62;79.88
45255;BME280;30989;52.078;21.014;2022-07-29T07:18:28;168924.75;;;19.63;79.00
45255;BME280;30989;52.078;21.014;2022-07-29T07:20:54;168936.88;;;19.68;78.76
45255;BME280;30989;52.078;21.014;2022-07-29T07:23:19;168927.44;;;19.64;76.32
45255;BME280;30989;52.078;21.014;2022-07-29T07:25:45;168923.41;;;19.63;78.37
45255;BME280;30989;52.078;21.014;2022-07-29T07:28:10;168930.13;;;19.66;74.63
45255;BME280;30989;52.078;21.014;2022-07-29T07:30:36;168895.13;;;19.52;76.97
45255;BME280;30989;52.078;21.014;2022-07-29T07:33:03;168905.91;;;19.56;77.62
45255;BME280;30989;52.078;21.014;2022-07-29T07:35:28;168926.09;;;19.64;78.10
45255;BME280;30989;52.078;21.014;2022-07-29T07:37:55;168981.31;;;19.85;77.74
45255;BME280;30989;52.078;21.014;2022-07-29T07:40:20;169009.56;;;19.95;77.29
45255;BME280;30989;52.078;21.014;2022-07-29T07:42:46;169040.56;;;20.07;76.50
45255;BME280;30989;52.078;21.014;2022-07-29T07:45:11;169029.78;;;20.03;74.93
45255;BME280;30989;52.078;21.014;2022-07-29T07:47:38;169013.63;;;19.97;76.08
45255;BME280;30989;52.078;21.014;2022-07-29T07:50:05;169059.41;;;20.14;76.06
45255;BME280;30989;52.078;21.014;2022-07-29T07:52:32;169089.03;;;20.25;74.63
45255;BME280;30989;52.078;21.014;2022-07-29T07:54:58;169105.19;;;20.32;74.93
45255;BME280;30989;52.078;21.014;2022-07-29T07:57:23;169117.31;;;20.36;75.02
45255;BME280;30989;52.078;21.014;2022-07-29T07:59:49;169132.19;;;20.42;74.54
45255;BME280;30989;52.078;21.014;2022-07-29T08:02:14;169167.22;;;20.55;73.90
45255;BME280;30989;52.078;21.014;2022-07-29T08:04:40;169180.69;;;20.60;73.29
45255;BME280;30989;52.078;21.014;2022-07-29T08:07:07;169202.25;;;20.68;73.02
45255;BME280;30989;52.078;21.014;2022-07-29T08:09:34;169213.03;;;20.72;72.63
45255;BME280;30989;52.078;21.014;2022-07-29T08:12:00;169237.31;;;20.81;71.70
45255;BME280;30989;52.078;21.014;2022-07-29T08:14:31;169248.09;;;20.85;71.82
45255;BME280;30989;52.078;21.014;2022-07-29T08:16:57;169272.34;;;20.95;71.67
45255;BME280;30989;52.078;21.014;2022-07-29T08:19:23;169285.81;;;21.00;71.20
45255;BME280;30989;52.078;21.014;2022-07-29T08:21:49;169293.91;;;21.03;70.64
45255;BME280;30989;52.078;21.014;2022-07-29T08:24:14;169315.47;;;21.11;68.45
45255;BME280;30989;52.078;21.014;2022-07-29T08:26:58;169291.22;;;21.02;70.54
45255;BME280;30989;52.078;21.014;2022-07-29T08:29:24;169300.66;;;21.05;69.87
45255;BME280;30989;52.078;21.014;2022-07-29T08:31:49;169316.81;;;21.11;69.21
45255;BME280;30989;52.078;21.014;2022-07-29T08:34:15;169342.41;;;21.21;69.31
45255;BME280;30989;52.078;21.014;2022-07-29T08:36:40;169365.38;;;21.30;69.08
45255;BME280;30989;52.078;21.014;2022-07-29T08:39:06;169382.91;;;21.36;69.35
45255;BME280;30989;52.078;21.014;2022-07-29T08:41:31;169376.16;;;21.34;68.04
45255;BME280;30989;52.078;21.014;2022-07-29T08:43:57;169369.41;;;21.31;68.93
45255;BME280;30989;52.078;21.014;2022-07-29T08:46:23;169372.13;;;21.32;65.98
45255;BME280;30989;52.078;21.014;2022-07-29T08:48:48;169372.13;;;21.32;65.66
45255;BME280;30989;52.078;21.014;2022-07-29T08:51:16;169405.81;;;21.45;66.76
45255;BME280;30989;52.078;21.014;2022-07-29T08:53:44;169427.38;;;21.53;66.69
45255;BME280;30989;52.078;21.014;2022-07-29T08:56:16;169434.13;;;21.55;66.47
45255;BME280;30989;52.078;21.014;2022-07-29T08:58:44;169477.25;;;21.72;67.12
45255;BME280;30989;52.078;21.014;2022-07-29T09:01:10;169490.72;;;21.77;65.76
45255;BME280;30989;52.078;21.014;2022-07-29T09:03:37;169484.00;;;21.74;63.66
45255;BME280;30989;52.078;21.014;2022-07-29T09:06:05;169523.09;;;21.89;62.23
45255;BME280;30989;52.078;21.014;2022-07-29T09:08:32;169550.03;;;21.99;60.61
45255;BME280;30989;52.078;21.014;2022-07-29T09:10:58;169578.41;;;22.10;63.37
45255;BME280;30989;52.078;21.014;2022-07-29T09:13:26;169606.72;;;22.21;63.45
45255;BME280;30989;52.078;21.014;2022-07-29T09:15:51;169617.50;;;22.25;60.60
45255;BME280;30989;52.078;21.014;2022-07-29T09:21:02;169644.47;;;22.35;61.07
45255;BME280;30989;52.078;21.014;2022-07-29T09:24:06;169748.31;;;22.74;60.95
45255;BME280;30989;52.078;21.014;2022-07-29T09:26:39;169833.31;;;23.06;61.18
45255;BME280;30989;52.078;21.014;2022-07-29T09:29:10;169879.19;;;23.23;60.21
45255;BME280;30989;52.078;21.014;2022-07-29T09:31:38;169869.75;;;23.20;58.43
45255;BME280;30989;52.078;21.014;2022-07-29T09:34:05;169814.44;;;22.99;57.23
45255;BME280;30989;52.078;21.014;2022-07-29T09:36:38;169772.63;;;22.83;58.49
45255;BME280;30989;52.078;21.014;2022-07-29T09:39:04;169755.03;;;22.76;59.28
45255;BME280;30989;52.078;21.014;2022-07-29T09:41:29;169841.41;;;23.09;58.69
45255;BME280;30989;52.078;21.014;2022-07-29T09:43:59;169954.72;;;23.52;58.47
45255;BME280;30989;52.078;21.014;2022-07-29T09:46:25;170024.94;;;23.78;56.25
45255;BME280;30989;52.078;21.014;2022-07-29T09:49:11;169981.75;;;23.62;53.33
45255;BME280;30989;52.078;21.014;2022-07-29T09:51:37;169973.69;;;23.59;55.37
45255;BME280;30989;52.078;21.014;2022-07-29T09:54:21;169989.84;;;23.65;54.92
45255;BME280;30989;52.078;21.014;2022-07-29T09:56:48;170011.44;;;23.73;55.76
45255;BME280;30989;52.078;21.014;2022-07-29T09:59:13;170038.44;;;23.83;53.76
45255;BME280;30989;52.078;21.014;2022-07-29T10:01:39;170062.72;;;23.92;54.44
45255;BME280;30989;52.078;21.014;2022-07-29T10:04:05;170078.91;;;23.98;53.47
45255;BME280;30989;52.078;21.014;2022-07-29T10:06:30;170041.13;;;23.84;53.64
45255;BME280;30989;52.078;21.014;2022-07-29T10:09:09;170046.53;;;23.86;53.57
45255;BME280;30989;52.078;21.014;2022-07-29T10:11:34;170011.44;;;23.73;52.66
45255;BME280;30989;52.078;21.014;2022-07-29T10:14:01;170016.84;;;23.75;54.41
45255;BME280;30989;52.078;21.014;2022-07-29T10:16:27;170035.75;;;23.82;53.53
45255;BME280;30989;52.078;21.014;2022-07-29T10:18:58;170084.31;;;24.00;53.79
45255;BME280;30989;52.078;21.014;2022-07-29T10:21:27;170119.41;;;24.14;54.18
45255;BME280;30989;52.078;21.014;2022-07-29T10:23:54;170139.66;;;24.21;53.45
45255;BME280;30989;52.078;21.014;2022-07-29T10:26:22;170100.50;;;24.06;50.08
45255;BME280;30989;52.078;21.014;2022-07-29T10:28:48;170061.38;;;23.92;52.46
45255;BME280;30989;52.078;21.014;2022-07-29T10:31:29;170112.66;;;24.11;53.22
45255;BME280;30989;52.078;21.014;2022-07-29T10:37:01;170300.31;;;24.82;52.56
45255;BME280;30989;52.078;21.014;2022-07-29T10:39:52;170334.06;;;24.94;51.61
45255;BME280;30989;52.078;21.014;2022-07-29T10:42:24;170421.88;;;25.27;51.61
45255;BME280;30989;52.078;21.014;2022-07-29T10:44:52;170517.78;;;25.63;51.06
45255;BME280;30989;52.078;21.014;2022-07-29T10:47:28;170435.38;;;25.32;49.37
45255;BME280;30989;52.078;21.014;2022-07-29T10:49:59;170389.47;;;25.15;50.38
45255;BME280;30989;52.078;21.014;2022-07-29T10:55:36;170408.38;;;25.22;49.52
45255;BME280;30989;52.078;21.014;2022-07-29T10:58:18;170463.75;;;25.43;49.68
45255;BME280;30989;52.078;21.014;2022-07-29T11:00:46;170543.47;;;25.73;50.41
45255;BME280;30989;52.078;21.014;2022-07-29T11:03:47;170578.59;;;25.86;48.45
45255;BME280;30989;52.078;21.014;2022-07-29T11:06:13;170525.91;;;25.66;47.33
45255;BME280;30989;52.078;21.014;2022-07-29T11:08:39;170478.59;;;25.49;49.16
45255;BME280;30989;52.078;21.014;2022-07-29T11:13:52;170348.97;;;25.00;47.79
45255;BME280;30989;52.078;21.014;2022-07-29T11:16:20;170325.97;;;24.91;47.76
45255;BME280;30989;52.078;21.014;2022-07-29T11:21:42;170200.44;;;24.44;47.16
45255;BME280;30989;52.078;21.014;2022-07-29T11:24:16;170151.78;;;24.26;49.44
45255;BME280;30989;52.078;21.014;2022-07-29T11:26:43;170154.53;;;24.27;49.11
45255;BME280;30989;52.078;21.014;2022-07-29T11:29:17;170168.03;;;24.32;49.12
45255;BME280;30989;52.078;21.014;2022-07-29T11:31:46;170226.06;;;24.54;49.89
45255;BME280;30989;52.078;21.014;2022-07-29T11:34:24;170286.81;;;24.77;48.90
45255;BME280;30989;52.078;21.014;2022-07-29T11:39:40;170434.03;;;25.32;49.39
45255;BME280;30989;52.078;21.014;2022-07-29T11:45:02;170582.66;;;25.88;45.75
45255;BME280;30989;52.078;21.014;2022-07-29T11:47:32;170632.66;;;26.07;47.41
45255;BME280;30989;52.078;21.014;2022-07-29T11:50:01;170712.44;;;26.37;43.66
45255;BME280;30989;52.078;21.014;2022-07-29T11:52:41;170754.31;;;26.52;43.49
45255;BME280;30989;52.078;21.014;2022-07-29T11:55:16;170847.53;;;26.87;44.45
45255;BME280;30989;52.078;21.014;2022-07-29T11:57:56;171046.31;;;27.62;43.96
45255;BME280;30989;52.078;21.014;2022-07-29T12:00:40;171258.63;;;28.42;43.47
45255;BME280;30989;52.078;21.014;2022-07-29T12:03:08;171427.72;;;29.05;43.29
45255;BME280;30989;52.078;21.014;2022-07-29T12:05:35;171487.25;;;29.28;41.52
45255;BME280;30989;52.078;21.014;2022-07-29T12:08:14;171351.94;;;28.77;37.52
45255;BME280;30989;52.078;21.014;2022-07-29T12:10:40;171186.91;;;28.15;38.84
45255;BME280;30989;52.078;21.014;2022-07-29T12:13:07;170969.22;;;27.33;38.58
45255;BME280;30989;52.078;21.014;2022-07-29T12:15:33;170751.59;;;26.51;40.58
45255;BME280;30989;52.078;21.014;2022-07-29T12:18:13;170602.91;;;25.95;41.25
45255;BME280;30989;52.078;21.014;2022-07-29T12:20:39;170543.47;;;25.73;43.02
45255;BME280;30989;52.078;21.014;2022-07-29T12:23:06;170550.22;;;25.76;42.36
45255;BME280;30989;52.078;21.014;2022-07-29T12:25:34;170621.88;;;26.02;41.63
45255;BME280;30989;52.078;21.014;2022-07-29T12:28:02;170792.16;;;26.67;43.21
45255;BME280;30989;52.078;21.014;2022-07-29T12:33:21;171536.00;;;29.46;41.11
45255;BME280;30989;52.078;21.014;2022-07-29T12:35:50;171973.22;;;31.10;40.03
45255;BME280;30989;52.078;21.014;2022-07-29T12:38:16;172393.22;;;32.67;36.12
45255;BME280;30989;52.078;21.014;2022-07-29T12:40:43;172375.59;;;32.61;35.48
45255;BME280;30989;52.078;21.014;2022-07-29T12:43:18;172410.81;;;32.74;34.82
45255;BME280;30989;52.078;21.014;2022-07-29T12:45:55;172440.69;;;32.85;32.93
45255;BME280;30989;52.078;21.014;2022-07-29T12:48:38;172322.78;;;32.41;34.19
45255;BME280;30989;52.078;21.014;2022-07-29T12:51:05;172278.09;;;32.24;31.93
45255;BME280;30989;52.078;21.014;2022-07-29T12:53:35;172045.06;;;31.37;32.78
45255;BME280;30989;52.078;21.014;2022-07-29T12:56:01;171933.97;;;30.95;34.52
45255;BME280;30989;52.078;21.014;2022-07-29T12:58:31;171810.72;;;30.49;33.15
45255;BME280;30989;52.078;21.014;2022-07-29T13:01:09;171419.63;;;29.02;33.76
45255;BME280;30989;52.078;21.014;2022-07-29T13:03:48;171161.22;;;28.05;35.63
45255;BME280;30989;52.078;21.014;2022-07-29T13:06:43;171232.94;;;28.32;36.13
45255;BME280;30989;52.078;21.014;2022-07-29T13:11:43;171343.81;;;28.74;37.33
45255;BME280;30989;52.078;21.014;2022-07-29T13:14:11;171599.59;;;29.70;37.80
45255;BME280;30989;52.078;21.014;2022-07-29T13:17:08;171890.63;;;30.79;33.34
45255;BME280;30989;52.078;21.014;2022-07-29T13:19:53;171854.09;;;30.65;31.12
45255;BME280;30989;52.078;21.014;2022-07-29T13:22:24;171791.78;;;30.42;34.09
45255;BME280;30989;52.078;21.014;2022-07-29T13:24:50;171909.59;;;30.86;31.32